Time;durP1;ratioP1;P1;durP2;ratioP2;P2;SDS_P1;SDS_P2;PMS_P1;PMS_P2;Temp;Humidity;BMP_temperature;BMP_pressure;BME280_temperature;BME280_humidity;BME280_pressure;Samples;Min_cycle;Max_cycle;Signal;HPM_P1;HPM_P2
2022/04/25 00:00:10;;;;;;;14.17;8.17;;;8.00;99.90;;;;;;6250956;22;20395;-85
2022/04/25 00:02:36;;;;;;;14.88;8.85;;;8.00;99.90;;;;;;6251131;22;20022;-86
2022/04/25 00:05:02;;;;;;;15.67;9.63;;;8.00;99.90;;;;;;6245661;23;20021;-86
2022/04/25 00:07:28;;;;;;;18.05;9.48;;;8.00;99.90;;;;;;6246131;23;20020;-85
2022/04/25 00:10:13;;;;;;;14.70;9.23;;;8.00;99.90;;;;;;6245619;23;20078;-86
2022/04/25 00:12:39;;;;;;;16.40;8.82;;;8.10;99.90;;;;;;6220431;23;20023;-85
2022/04/25 00:15:07;;;;;;;16.63;9.90;;;8.10;99.90;;;;;;6194811;23;20075;-86
2022/04/25 00:17:32;;;;;;;13.82;9.88;;;8.20;99.90;;;;;;6245125;23;20469;-86
2022/04/25 00:19:58;;;;;;;20.73;10.13;;;8.20;99.90;;;;;;6244816;23;20015;-85
2022/04/25 00:22:24;;;;;;;15.93;9.20;;;8.20;99.90;;;;;;6246720;23;20082;-86
2022/04/25 00:24:50;;;;;;;15.57;9.27;;;8.20;99.90;;;;;;6246692;23;20165;-85
2022/04/25 00:27:35;;;;;;;18.52;10.07;;;8.30;99.90;;;;;;6247101;22;20019;-84
2022/04/25 00:30:21;;;;;;;16.13;9.68;;;8.30;99.90;;;;;;6194567;23;20016;-85
2022/04/25 00:32:46;;;;;;;17.05;9.57;;;8.30;99.90;;;;;;6219506;23;20020;-85
2022/04/25 00:35:12;;;;;;;15.53;9.53;;;8.40;99.90;;;;;;6219758;23;20063;-83
2022/04/25 00:37:38;;;;;;;17.10;10.60;;;8.40;99.90;;;;;;6245148;23;20027;-84
2022/04/25 00:40:21;;;;;;;20.50;11.07;;;8.40;99.90;;;;;;6244890;23;20016;-86
2022/04/25 00:42:47;;;;;;;15.23;11.05;;;8.50;99.90;;;;;;6220282;23;20487;-86
2022/04/25 00:45:14;;;;;;;18.83;10.25;;;8.40;99.90;;;;;;6245710;23;20349;-85
2022/04/25 00:47:40;;;;;;;;;;;8.40;99.90;;;;;;6221441;23;20020;-86
2022/04/25 00:50:07;;;;;;;17.90;11.02;;;8.40;99.90;;;;;;6246039;23;19912;-85
2022/04/25 00:52:33;;;;;;;18.55;11.55;;;8.40;99.90;;;;;;6245826;22;20027;-86
2022/04/25 00:55:00;;;;;;;18.30;11.53;;;8.50;99.90;;;;;;6246750;23;20008;-85
2022/04/25 00:57:27;;;;;;;16.05;11.25;;;8.50;99.90;;;;;;6244796;23;20016;-85
2022/04/25 00:59:56;;;;;;;16.00;10.27;;;8.50;99.90;;;;;;6246260;22;20024;-85
2022/04/25 01:02:22;;;;;;;15.85;10.77;;;8.50;99.90;;;;;;6245175;23;20087;-85
2022/04/25 01:04:48;;;;;;;18.03;11.13;;;8.60;99.90;;;;;;6245084;23;20373;-85
2022/04/25 01:07:14;;;;;;;17.88;11.65;;;8.60;99.90;;;;;;6246435;22;20017;-86
2022/04/25 01:09:40;;;;;;;19.60;11.87;;;8.60;99.90;;;;;;6246455;23;20055;-86
2022/04/25 01:12:06;;;;;;;17.13;11.93;;;8.60;99.90;;;;;;6219526;23;20038;-86
2022/04/25 01:14:31;;;;;;;17.90;11.60;;;8.60;99.90;;;;;;6219616;23;20024;-86
2022/04/25 01:16:57;;;;;;;18.13;11.27;;;8.60;99.90;;;;;;6219657;23;20395;-85
2022/04/25 01:19:23;;;;;;;18.03;11.57;;;8.50;99.90;;;;;;6244706;23;20028;-86
2022/04/25 01:21:57;;;;;;;18.13;12.00;;;8.50;99.90;;;;;;6244821;23;20024;-86
2022/04/25 01:27:18;;;;;;;18.80;11.55;;;8.60;99.90;;;;;;6219031;23;20460;-86
2022/04/25 01:29:48;;;;;;;19.52;11.48;;;8.60;99.90;;;;;;6246339;23;20027;-86
2022/04/25 01:32:15;;;;;;;19.30;12.23;;;8.60;99.90;;;;;;6219707;23;20460;-87
2022/04/25 01:34:41;;;;;;;;;;;8.60;99.90;;;;;;6247977;22;20016;-86
2022/04/25 01:37:11;;;;;;;18.65;11.68;;;8.70;99.90;;;;;;6220356;23;19961;-86
2022/04/25 01:39:48;;;;;;;18.00;12.18;;;8.70;99.90;;;;;;6251736;22;20018;-94
2022/04/25 01:42:14;;;;;;;19.27;12.18;;;8.80;99.90;;;;;;6247293;23;20012;-90
2022/04/25 01:44:40;;;;;;;17.15;11.68;;;8.80;99.90;;;;;;6228287;23;20040;-88
2022/04/25 01:47:08;;;;;;;19.93;11.73;;;8.80;99.90;;;;;;6257831;23;20016;-86
2022/04/25 01:49:37;;;;;;;16.40;10.90;;;8.80;99.90;;;;;;6237891;23;20019;-85
2022/04/25 01:52:32;;;;;;;17.20;10.40;;;8.80;99.90;;;;;;6259694;23;20063;-86
2022/04/25 01:55:13;;;;;;;17.48;10.82;;;8.80;99.90;;;;;;6260993;22;20016;-92
2022/04/25 01:57:38;;;;;;;12.65;9.88;;;8.80;99.90;;;;;;6250944;23;20023;-87
2022/04/25 02:00:05;;;;;;;16.27;9.27;;;8.80;99.90;;;;;;6196198;23;20016;-85
2022/04/25 02:02:31;;;;;;;;;;;8.80;99.90;;;;;;6246417;23;20023;-86
2022/04/25 02:04:56;;;;;;;14.27;9.20;;;8.80;99.90;;;;;;6245466;23;19916;-85
2022/04/25 02:07:23;;;;;;;14.83;9.30;;;8.70;99.90;;;;;;6219044;23;20020;-86
2022/04/25 02:10:13;;;;;;;15.00;9.15;;;8.70;99.90;;;;;;6246161;23;20012;-86
2022/04/25 02:16:26;;;;;;;14.90;8.73;;;8.70;99.90;;;;;;6258537;23;20042;-85
2022/04/25 02:18:54;;;;;;;14.70;9.05;;;8.60;99.90;;;;;;6231320;23;20027;-87
2022/04/25 02:21:28;;;;;;;15.15;8.38;;;8.60;99.90;;;;;;6261238;23;20128;-85
2022/04/25 02:23:54;;;;;;;14.57;8.57;;;8.60;99.90;;;;;;6227106;23;20086;-85
2022/04/25 02:26:31;;;;;;;16.55;8.93;;;8.50;99.90;;;;;;6232350;23;20071;-88
2022/04/25 02:29:01;;;;;;;13.77;8.50;;;8.50;99.90;;;;;;6207107;23;20009;-85
2022/04/25 02:31:27;;;;;;;13.52;8.38;;;8.50;99.90;;;;;;6233639;23;20023;-86
2022/04/25 02:33:52;;;;;;;15.50;8.88;;;8.40;99.90;;;;;;6234305;23;20067;-86
2022/04/25 02:36:18;;;;;;;18.60;9.37;;;8.50;99.90;;;;;;6202644;23;20043;-89
2022/04/25 02:38:44;;;;;;;15.30;8.80;;;8.50;99.90;;;;;;6207877;23;20024;-87
2022/04/25 02:41:09;;;;;;;15.10;9.57;;;8.50;99.90;;;;;;6229639;23;20024;-89
2022/04/25 02:43:45;;;;;;;14.73;8.73;;;8.50;99.90;;;;;;6226423;23;20043;-90
2022/04/25 02:46:12;;;;;;;14.15;8.75;;;8.50;99.90;;;;;;6230900;23;20016;-89
2022/04/25 02:48:40;;;;;;;13.43;8.57;;;8.50;99.90;;;;;;6229099;23;20016;-87
2022/04/25 02:51:07;;;;;;;14.88;8.30;;;8.50;99.90;;;;;;6227996;23;20020;-86
2022/04/25 02:53:34;;;;;;;15.52;8.52;;;8.60;99.90;;;;;;6257070;23;20016;-92
2022/04/25 02:56:00;;;;;;;;;;;8.60;99.90;;;;;;6229781;23;20016;-91
2022/04/25 02:58:26;;;;;;;14.15;8.15;;;8.60;99.90;;;;;;6226210;23;19937;-92
2022/04/25 03:00:52;;;;;;;12.93;7.40;;;8.60;99.90;;;;;;6253167;23;20019;-86
2022/04/25 03:03:20;;;;;;;12.73;7.13;;;8.60;99.90;;;;;;6220634;23;20071;-86
2022/04/25 03:05:47;;;;;;;12.82;7.30;;;8.50;99.90;;;;;;6247567;23;20095;-86
2022/04/25 03:08:15;;;;;;;13.77;7.50;;;8.50;99.90;;;;;;6220516;23;20083;-88
2022/04/25 03:10:45;;;;;;;12.43;7.75;;;8.60;99.90;;;;;;6247383;23;20048;-86
2022/04/25 03:13:12;;;;;;;12.45;7.53;;;8.60;99.90;;;;;;6220328;23;20380;-86
2022/04/25 03:15:41;;;;;;;12.73;7.47;;;8.50;99.90;;;;;;6220588;23;20020;-90
2022/04/25 03:18:08;;;;;;;13.70;8.32;;;8.50;99.90;;;;;;6247648;23;20385;-87
2022/04/25 03:20:34;;;;;;;14.02;8.07;;;8.50;99.90;;;;;;6247146;22;20016;-87
2022/04/25 03:23:00;;;;;;;15.68;8.80;;;8.50;99.90;;;;;;6221029;23;20041;-86
2022/04/25 03:25:26;;;;;;;15.27;8.65;;;8.40;99.90;;;;;;6247211;22;20020;-85
2022/04/25 03:27:52;;;;;;;16.52;9.25;;;8.40;99.90;;;;;;6247468;22;20027;-86
2022/04/25 03:30:18;;;;;;;14.67;9.23;;;8.30;99.90;;;;;;6245820;23;20087;-86
2022/04/25 03:32:48;;;;;;;15.00;9.30;;;8.30;99.90;;;;;;6245671;23;20020;-86
2022/04/25 03:35:17;;;;;;;15.43;9.13;;;8.20;99.90;;;;;;6245757;23;20254;-87
2022/04/25 03:37:44;;;;;;;16.40;8.95;;;8.20;99.90;;;;;;6247319;22;20016;-86
2022/04/25 03:40:10;;;;;;;16.70;8.77;;;8.20;99.90;;;;;;6245463;23;20020;-87
2022/04/25 03:42:39;;;;;;;16.50;8.80;;;8.20;99.90;;;;;;6246543;23;20016;-87
2022/04/25 03:45:09;;;;;;;18.23;9.40;;;8.10;99.90;;;;;;6232540;23;20020;-87
2022/04/25 03:47:35;;;;;;;12.73;8.38;;;8.10;99.90;;;;;;6232317;23;20016;-92
2022/04/25 03:50:01;;;;;;;15.23;8.15;;;8.10;99.90;;;;;;6229560;23;20020;-86
2022/04/25 03:52:27;;;;;;;12.33;7.80;;;8.00;99.90;;;;;;6256307;23;20015;-86
2022/04/25 03:57:40;;;;;;;15.07;7.63;;;7.90;99.90;;;;;;6256556;23;20020;-86
2022/04/25 04:00:07;;;;;;;14.80;8.23;;;7.90;99.90;;;;;;6245689;23;20277;-86
2022/04/25 04:02:33;;;;;;;13.68;8.38;;;7.80;99.90;;;;;;6245746;23;20020;-86
2022/04/25 04:05:00;;;;;;;14.98;9.18;;;7.80;99.90;;;;;;6248710;23;20052;-85
2022/04/25 04:07:26;;;;;;;;;;;7.80;99.90;;;;;;6220931;23;20071;-87
2022/04/25 04:09:51;;;;;;;14.90;8.65;;;7.70;99.90;;;;;;6247072;23;20292;-86
2022/04/25 04:12:18;;;;;;;14.77;8.80;;;7.80;99.90;;;;;;6247019;22;20381;-87
2022/04/25 04:14:45;;;;;;;14.30;8.90;;;7.70;99.90;;;;;;6219910;23;20324;-85
2022/04/25 04:17:11;;;;;;;;;;;7.70;99.90;;;;;;6247254;22;20021;-86
2022/04/25 04:19:38;;;;;;;15.13;8.52;;;7.70;99.90;;;;;;6246767;22;19995;-86
2022/04/25 04:22:05;;;;;;;12.00;8.70;;;7.60;99.90;;;;;;6245126;23;20035;-86
2022/04/25 04:24:32;;;;;;;16.65;9.20;;;7.70;99.90;;;;;;6245100;23;20085;-85
2022/04/25 04:27:01;;;;;;;13.50;9.30;;;7.70;99.90;;;;;;6245100;23;20031;-86
2022/04/25 04:29:32;;;;;;;15.32;9.07;;;7.70;99.90;;;;;;6245215;23;20087;-89
2022/04/25 04:32:00;;;;;;;16.50;9.05;;;7.70;99.90;;;;;;6245276;23;20070;-86
2022/04/25 04:34:26;;;;;;;15.70;9.32;;;7.60;99.90;;;;;;6219788;23;20016;-87
2022/04/25 04:36:52;;;;;;;15.67;9.10;;;7.70;99.90;;;;;;6245094;23;20018;-87
2022/04/25 04:39:18;;;;;;;17.70;8.73;;;7.70;99.90;;;;;;6246787;23;20089;-87
2022/04/25 04:41:44;;;;;;;16.45;9.50;;;7.70;99.90;;;;;;6246866;22;20035;-87
2022/04/25 04:44:11;;;;;;;15.98;9.57;;;7.70;99.90;;;;;;6245655;23;20012;-87
2022/04/25 04:46:36;;;;;;;15.43;9.63;;;7.70;99.90;;;;;;6247711;22;20016;-88
2022/04/25 04:49:02;;;;;;;16.00;9.90;;;7.70;99.90;;;;;;6194129;23;20020;-87
2022/04/25 04:51:28;;;;;;;17.27;10.20;;;7.80;99.90;;;;;;6218495;23;20016;-87
2022/04/25 04:53:53;;;;;;;15.07;10.13;;;7.80;99.90;;;;;;6246089;23;20016;-87
2022/04/25 04:56:19;;;;;;;16.77;9.60;;;7.80;99.90;;;;;;6219741;23;20023;-87
2022/04/25 04:58:45;;;;;;;15.10;9.80;;;7.90;99.90;;;;;;6194481;23;20020;-86
2022/04/25 05:01:11;;;;;;;13.80;9.50;;;7.90;99.90;;;;;;6246671;23;20087;-86
2022/04/25 05:03:39;;;;;;;16.50;9.80;;;7.90;99.90;;;;;;6248331;23;20067;-93
2022/04/25 05:06:05;;;;;;;14.20;9.38;;;7.80;99.90;;;;;;6222662;23;20055;-94
2022/04/25 05:08:31;;;;;;;16.17;9.87;;;7.90;99.90;;;;;;6249107;23;20515;-92
2022/04/25 05:10:57;;;;;;;15.90;9.33;;;7.80;99.90;;;;;;6221225;23;20020;-94
2022/04/25 05:13:23;;;;;;;15.35;9.95;;;7.90;99.90;;;;;;6226062;22;20020;-88
2022/04/25 05:15:49;;;;;;;14.90;9.13;;;7.80;99.90;;;;;;6225866;22;20134;-88
2022/04/25 05:18:15;;;;;;;17.67;10.60;;;7.90;99.90;;;;;;6224933;22;20142;-88
2022/04/25 05:20:41;;;;;;;16.08;10.48;;;7.80;99.90;;;;;;6277491;22;20020;-88
2022/04/25 05:23:10;;;;;;;18.50;10.70;;;7.80;99.90;;;;;;6253234;22;20097;-90
2022/04/25 05:25:38;;;;;;;17.30;10.35;;;7.80;99.90;;;;;;6227975;22;20449;-94
2022/04/25 05:28:05;;;;;;;18.60;10.68;;;7.90;99.90;;;;;;6277480;22;20453;-92
2022/04/25 05:30:37;;;;;;;15.57;10.38;;;7.90;99.90;;;;;;6250976;22;20409;-92
2022/04/25 05:33:03;;;;;;;17.25;10.88;;;7.90;99.90;;;;;;6225069;22;20027;-93
2022/04/25 05:35:33;;;;;;;15.87;10.17;;;7.90;99.90;;;;;;6224209;22;20016;-86
2022/04/25 05:38:03;;;;;;;16.55;9.80;;;7.90;99.90;;;;;;6225849;22;20012;-92
2022/04/25 05:40:29;;;;;;;14.77;9.30;;;7.90;99.90;;;;;;6225635;22;20016;-91
2022/04/25 05:42:57;;;;;;;15.63;10.05;;;7.90;99.90;;;;;;6249146;22;20409;-85
2022/04/25 05:45:24;;;;;;;18.23;10.23;;;7.90;99.90;;;;;;6249674;22;20337;-90
2022/04/25 05:47:54;;;;;;;13.15;9.30;;;7.90;99.90;;;;;;6249710;22;20058;-85
2022/04/25 05:53:05;;;;;;;15.15;9.90;;;8.00;99.90;;;;;;6249569;22;20016;-86
2022/04/25 05:55:31;;;;;;;14.18;9.48;;;7.90;99.90;;;;;;6276684;22;20038;-86
2022/04/25 05:57:58;;;;;;;13.77;9.50;;;7.90;99.90;;;;;;6276524;22;20019;-87
2022/04/25 06:00:24;;;;;;;15.95;9.73;;;7.90;99.90;;;;;;6224307;22;20051;-87
2022/04/25 06:02:50;;;;;;;16.27;10.55;;;7.90;99.90;;;;;;6249360;22;20015;-89
2022/04/25 06:05:16;;;;;;;17.45;9.88;;;7.90;99.90;;;;;;6249936;22;20026;-88
2022/04/25 06:07:45;;;;;;;16.52;9.70;;;7.90;99.90;;;;;;6249944;22;20015;-87
2022/04/25 06:10:19;;;;;;;17.10;10.40;;;7.90;99.90;;;;;;6277111;22;20051;-85
2022/04/25 06:12:50;;;;;;;13.55;9.43;;;7.90;99.90;;;;;;6249239;22;20012;-87
2022/04/25 06:15:17;;;;;;;12.48;9.65;;;7.90;99.90;;;;;;6249526;22;20098;-85
2022/04/25 06:17:43;;;;;;;14.52;9.55;;;7.90;99.90;;;;;;6249735;22;20039;-87
2022/04/25 06:20:10;;;;;;;15.63;10.57;;;7.90;99.90;;;;;;6276661;22;20061;-86
2022/04/25 06:22:37;;;;;;;15.18;9.25;;;8.00;99.90;;;;;;6249568;22;20456;-84
2022/04/25 06:25:03;;;;;;;;;;;8.00;99.90;;;;;;6224606;22;20119;-83
2022/04/25 06:27:29;;;;;;;16.38;9.85;;;8.00;99.90;;;;;;6276229;22;19965;-83
2022/04/25 06:29:55;;;;;;;16.27;10.73;;;8.00;99.90;;;;;;6276205;22;20019;-86
2022/04/25 06:32:20;;;;;;;17.42;10.85;;;8.00;99.90;;;;;;6249804;22;20057;-84
2022/04/25 06:34:47;;;;;;;17.67;10.33;;;7.90;99.90;;;;;;6249552;22;20510;-87
2022/04/25 06:37:13;;;;;;;15.50;10.55;;;7.90;99.90;;;;;;6249486;22;20038;-84
2022/04/25 06:39:39;;;;;;;17.30;10.95;;;7.90;99.90;;;;;;6276623;22;20012;-84
2022/04/25 06:42:05;;;;;;;18.67;11.60;;;7.90;99.90;;;;;;6248893;22;20034;-87
2022/04/25 06:44:32;;;;;;;21.10;11.73;;;7.90;99.90;;;;;;6277269;22;20292;-88
2022/04/25 06:46:58;;;;;;;16.38;11.18;;;7.90;99.90;;;;;;6249978;22;20318;-88
2022/04/25 06:49:24;;;;;;;16.15;11.18;;;7.90;99.90;;;;;;6249092;22;20023;-85
2022/04/25 06:51:58;;;;;;;15.73;10.82;;;7.90;99.90;;;;;;6223685;22;20050;-87
2022/04/25 06:54:25;;;;;;;18.85;11.05;;;7.90;99.90;;;;;;6249759;22;20051;-88
2022/04/25 06:56:52;;;;;;;16.30;11.13;;;7.90;99.90;;;;;;6224157;22;20022;-85
2022/04/25 06:59:19;;;;;;;18.85;9.95;;;7.90;99.90;;;;;;6275963;22;20050;-85
2022/04/25 07:01:45;;;;;;;15.65;9.80;;;8.00;99.90;;;;;;6276175;22;20389;-88
2022/04/25 07:04:14;;;;;;;15.02;9.35;;;8.10;99.90;;;;;;6249203;22;20016;-86
2022/04/25 07:06:41;;;;;;;15.18;9.52;;;8.10;99.90;;;;;;6249323;22;20023;-88
2022/04/25 07:09:07;;;;;;;16.15;8.32;;;8.20;99.90;;;;;;6249471;22;20091;-84
2022/04/25 07:11:33;;;;;;;15.57;7.38;;;8.20;99.90;;;;;;6249088;22;20019;-85
2022/04/25 07:14:02;;;;;;;11.32;7.60;;;8.30;99.90;;;;;;6249028;22;20019;-86
2022/04/25 07:16:29;;;;;;;10.90;6.60;;;8.40;99.90;;;;;;6224133;22;20318;-84
2022/04/25 07:18:55;;;;;;;9.02;5.90;;;8.30;99.90;;;;;;6249085;22;20035;-85
2022/04/25 07:29:34;;;;;;;13.32;7.35;;;8.40;99.90;;;;;;6277774;22;20030;-87
2022/04/25 07:31:59;;;;;;;13.17;7.70;;;8.30;99.90;;;;;;6250717;22;20230;-84
2022/04/25 07:34:25;;;;;;;11.37;6.33;;;8.30;99.90;;;;;;6225408;22;20022;-84
2022/04/25 07:36:53;;;;;;;12.93;5.57;;;8.30;99.90;;;;;;6277872;22;20035;-84
2022/04/25 07:39:22;;;;;;;10.52;5.03;;;8.20;99.90;;;;;;6250731;22;20054;-86
2022/04/25 07:41:50;;;;;;;10.57;5.25;;;8.20;99.90;;;;;;6226273;22;20106;-90
2022/04/25 07:44:16;;;;;;;12.45;5.07;;;8.20;99.90;;;;;;6250898;22;20045;-85
2022/04/25 07:46:42;;;;;;;10.30;4.50;;;8.20;99.90;;;;;;6249714;22;20072;-85
2022/04/25 07:49:09;;;;;;;13.00;4.78;;;8.30;99.90;;;;;;6276616;22;20019;-85
2022/04/25 07:51:41;;;;;;;14.00;4.93;;;8.30;99.90;;;;;;6250546;22;20094;-88
2022/04/25 07:54:08;;;;;;;12.07;4.72;;;8.40;99.90;;;;;;6278146;22;20020;-85
2022/04/25 07:56:34;;;;;;;11.10;5.05;;;8.40;99.90;;;;;;6277885;22;20022;-90
2022/04/25 07:59:00;;;;;;;9.55;4.47;;;8.50;99.90;;;;;;6227153;22;20335;-93
2022/04/25 08:01:27;;;;;;;8.73;4.57;;;8.50;99.90;;;;;;6226249;22;20015;-91
2022/04/25 08:03:54;;;;;;;10.13;4.43;;;8.60;99.90;;;;;;6225333;22;20019;-89
2022/04/25 08:06:20;;;;;;;10.98;4.88;;;8.80;99.90;;;;;;6278162;22;20027;-93
2022/04/25 08:08:50;;;;;;;9.15;4.03;;;8.90;99.90;;;;;;6250924;22;20027;-88
2022/04/25 08:11:17;;;;;;;11.15;4.80;;;8.90;99.90;;;;;;6250872;22;20471;-89
2022/04/25 08:19:13;;;;;;;9.70;4.78;;;8.90;99.90;;;;;;6250581;22;20020;-89
2022/04/25 08:21:42;;;;;;;11.00;4.90;;;8.90;99.90;;;;;;6225673;22;20344;-90
2022/04/25 08:24:09;;;;;;;12.10;4.80;;;8.90;99.90;;;;;;6251103;22;20012;-89
2022/04/25 08:26:34;;;;;;;11.63;5.00;;;8.90;99.90;;;;;;6226343;22;20019;-86
2022/04/25 08:29:00;;;;;;;9.73;4.77;;;8.90;99.90;;;;;;6278099;22;20053;-89
2022/04/25 08:31:27;;;;;;;12.73;5.20;;;9.00;99.90;;;;;;6225813;22;20391;-90
2022/04/25 08:33:53;;;;;;;;;;;9.00;99.90;;;;;;6225857;22;20019;-90
2022/04/25 08:36:19;;;;;;;10.50;4.90;;;9.10;99.90;;;;;;6225510;22;19911;-89
2022/04/25 08:38:46;;;;;;;10.70;4.90;;;9.20;99.90;;;;;;6250722;22;20103;-87
2022/04/25 08:41:13;;;;;;;;;;;9.40;99.90;;;;;;6226431;22;20015;-91
2022/04/25 08:43:40;;;;;;;9.68;4.75;;;9.50;99.90;;;;;;6251193;22;19915;-90
2022/04/25 08:46:08;;;;;;;8.30;4.70;;;9.60;99.90;;;;;;6250849;22;20085;-89
2022/04/25 08:48:34;;;;;;;10.70;5.22;;;9.70;99.90;;;;;;6277299;22;20019;-90
2022/04/25 08:51:00;;;;;;;9.17;5.50;;;9.80;99.90;;;;;;6226596;22;20016;-94
2022/04/25 08:53:27;;;;;;;9.45;4.50;;;9.90;99.90;;;;;;6251115;22;20023;-91
2022/04/25 08:55:54;;;;;;;8.88;4.70;;;10.00;99.90;;;;;;6225909;22;20054;-92
2022/04/25 08:58:22;;;;;;;10.73;4.25;;;10.00;99.90;;;;;;6275664;22;20023;-90
2022/04/25 09:00:48;;;;;;;8.18;4.50;;;10.00;99.90;;;;;;6250263;22;20071;-85
2022/04/25 09:03:14;;;;;;;8.77;4.38;;;9.90;99.90;;;;;;6277593;22;20051;-88
2022/04/25 09:05:41;;;;;;;9.25;4.63;;;9.90;99.90;;;;;;6250478;22;20368;-86
2022/04/25 09:08:07;;;;;;;6.93;3.92;;;9.80;99.90;;;;;;6252028;22;20094;-91
2022/04/25 09:10:34;;;;;;;6.97;3.67;;;9.80;99.90;;;;;;6252711;22;20102;-91
2022/04/25 09:13:01;;;;;;;10.25;4.40;;;9.80;99.90;;;;;;6277791;22;20086;-88
2022/04/25 09:15:27;;;;;;;;;;;9.70;99.90;;;;;;6250965;22;20022;-87
2022/04/25 09:17:54;;;;;;;10.15;4.32;;;9.80;99.90;;;;;;6251173;22;19916;-89
2022/04/25 09:20:20;;;;;;;9.32;4.00;;;9.80;99.90;;;;;;6277742;22;20012;-86
2022/04/25 09:22:47;;;;;;;;;;;9.80;99.90;;;;;;6227054;22;20026;-92
2022/04/25 09:25:15;;;;;;;10.18;4.05;;;9.80;99.90;;;;;;6277755;22;19919;-91
2022/04/25 09:27:41;;;;;;;8.88;4.00;;;9.90;99.90;;;;;;6250331;22;20015;-88
2022/04/25 09:30:19;;;;;;;7.13;4.40;;;9.90;99.90;;;;;;6277603;22;20011;-91
2022/04/25 09:32:47;;;;;;;9.75;3.97;;;10.00;99.90;;;;;;6250246;22;20011;-90
2022/04/25 09:35:28;;;;;;;8.35;3.83;;;10.10;99.90;;;;;;6278437;22;20016;-85
2022/04/25 09:37:54;;;;;;;8.10;3.85;;;10.30;99.90;;;;;;6223799;22;20016;-91
2022/04/25 09:40:21;;;;;;;;;;;10.30;99.90;;;;;;6277778;22;20445;-91
2022/04/25 09:42:48;;;;;;;8.48;3.80;;;10.50;99.90;;;;;;6249381;22;20348;-89
2022/04/25 09:45:15;;;;;;;10.02;4.35;;;10.60;99.90;;;;;;6250179;22;20019;-93
2022/04/25 09:47:41;;;;;;;8.63;4.25;;;10.70;99.90;;;;;;6225418;22;20405;-88
2022/04/25 09:50:14;;;;;;;8.23;3.88;;;10.80;99.90;;;;;;6249803;22;20066;-90
2022/04/25 09:52:55;;;;;;;9.05;4.07;;;10.90;99.90;;;;;;6252844;22;20091;-89
2022/04/25 09:55:24;;;;;;;7.68;4.20;;;11.10;99.90;;;;;;6251793;22;20077;-90
2022/04/25 09:57:50;;;;;;;10.25;4.35;;;11.20;99.90;;;;;;6278374;22;20019;-92
2022/04/25 10:00:33;;;;;;;9.25;4.07;;;11.20;99.90;;;;;;6251524;22;20086;-92
2022/04/25 10:03:06;;;;;;;9.27;4.50;;;11.20;99.90;;;;;;6250093;22;20062;-91
2022/04/25 10:05:46;;;;;;;7.72;4.15;;;11.30;99.90;;;;;;6277285;22;20434;-87
2022/04/25 10:08:14;;;;;;;8.13;4.18;;;11.50;99.90;;;;;;6249734;22;20011;-89
2022/04/25 10:10:46;;;;;;;8.93;4.18;;;11.60;99.90;;;;;;6250642;22;20062;-87
2022/04/25 10:13:12;;;;;;;7.18;3.90;;;11.70;99.90;;;;;;6252908;22;20022;-86
2022/04/25 10:15:39;;;;;;;8.02;3.35;;;11.70;99.90;;;;;;6252396;22;20024;-92
2022/04/25 10:18:06;;;;;;;7.75;3.58;;;11.60;99.90;;;;;;6277293;22;20121;-86
2022/04/25 10:20:36;;;;;;;9.57;4.45;;;11.60;99.90;;;;;;6250065;22;20027;-86
2022/04/25 10:23:04;;;;;;;6.57;3.75;;;11.70;99.90;;;;;;6250598;22;20016;-85
2022/04/25 10:25:30;;;;;;;9.43;3.83;;;11.80;99.90;;;;;;6277967;22;20016;-89
2022/04/25 10:27:59;;;;;;;7.53;3.45;;;11.80;99.90;;;;;;6249179;22;20015;-84
2022/04/25 10:30:29;;;;;;;6.55;3.50;;;11.80;99.90;;;;;;6251400;22;20461;-92
2022/04/25 10:33:17;;;;;;;9.38;3.65;;;11.70;99.90;;;;;;6278194;22;20094;-89
2022/04/25 10:35:44;;;;;;;7.53;3.33;;;11.70;99.90;;;;;;6252321;22;20085;-86
2022/04/25 10:38:48;;;;;;;8.63;3.72;;;11.60;99.90;;;;;;6277591;22;20016;-88
2022/04/25 10:44:17;;;;;;;8.00;3.47;;;11.50;99.90;;;;;;6251406;22;20015;-89
2022/04/25 10:47:09;;;;;;;6.70;3.83;;;11.50;99.90;;;;;;6250449;22;20051;-87
2022/04/25 10:49:53;;;;;;;8.90;3.83;;;11.60;99.90;;;;;;6252270;22;20023;-87
2022/04/25 10:52:37;;;;;;;7.05;3.50;;;11.60;99.90;;;;;;6278183;22;20034;-90
2022/04/25 10:55:33;;;;;;;8.15;3.72;;;11.60;99.90;;;;;;6250377;22;20019;-87
2022/04/25 10:58:02;;;;;;;5.93;3.85;;;11.60;99.90;;;;;;6252819;22;20445;-93
2022/04/25 11:00:40;;;;;;;6.40;3.70;;;11.60;99.90;;;;;;6229287;22;20039;-88
2022/04/25 11:03:11;;;;;;;7.35;3.65;;;11.60;99.90;;;;;;6251644;22;20318;-91
2022/04/25 11:05:43;;;;;;;7.97;3.90;;;11.70;99.90;;;;;;6251655;22;20357;-90
2022/04/25 11:08:23;;;;;;;6.55;3.70;;;11.70;99.90;;;;;;6280190;22;20020;-89
2022/04/25 11:10:50;;;;;;;5.25;3.10;;;11.80;99.90;;;;;;6228175;22;20068;-92
2022/04/25 11:13:19;;;;;;;7.55;3.60;;;11.80;99.90;;;;;;6228671;22;20443;-88
2022/04/25 11:16:10;;;;;;;8.13;3.53;;;11.80;99.90;;;;;;6254912;22;20027;-89
2022/04/25 11:18:41;;;;;;;8.07;3.95;;;11.80;99.90;;;;;;6255795;22;20012;-87
2022/04/25 11:21:16;;;;;;;7.28;4.00;;;11.90;99.90;;;;;;6227529;22;20016;-90
2022/04/25 11:23:54;;;;;;;7.55;3.90;;;11.90;99.90;;;;;;6281899;22;20099;-91
2022/04/25 11:26:20;;;;;;;9.57;3.80;;;12.00;99.90;;;;;;6228876;22;20519;-87
2022/04/25 11:29:08;;;;;;;12.17;4.33;;;12.00;99.90;;;;;;6228919;22;20015;-86
2022/04/25 11:31:35;;;;;;;8.55;3.88;;;12.10;99.90;;;;;;6256850;22;20094;-91
2022/04/25 11:34:03;;;;;;;8.88;4.15;;;12.10;99.90;;;;;;6256395;22;20084;-93
2022/04/25 11:36:37;;;;;;;9.90;4.38;;;12.10;99.90;;;;;;6255104;22;20019;-88
2022/04/25 11:41:49;;;;;;;8.75;4.03;;;12.20;99.90;;;;;;6282905;22;20122;-92
2022/04/25 11:44:15;;;;;;;8.10;4.05;;;12.20;99.90;;;;;;6281321;22;20016;-86
2022/04/25 11:46:44;;;;;;;10.30;4.13;;;12.20;99.90;;;;;;6256600;22;20380;-86
2022/04/25 11:49:10;;;;;;;12.32;4.57;;;12.40;99.90;;;;;;6254355;22;20067;-88
2022/04/25 11:51:40;;;;;;;9.87;4.40;;;12.50;99.90;;;;;;6260880;22;20022;-87
2022/04/25 11:54:10;;;;;;;9.43;4.53;;;12.70;99.90;;;;;;6232031;22;20020;-91
2022/04/25 11:56:40;;;;;;;8.68;4.53;;;12.90;99.90;;;;;;6228261;22;20026;-86
2022/04/25 11:59:11;;;;;;;8.30;4.43;;;13.20;99.90;;;;;;6280080;22;20018;-92
2022/04/25 12:01:47;;;;;;;8.90;4.63;;;13.40;99.90;;;;;;6226814;22;20051;-88
2022/04/25 12:04:23;;;;;;;7.25;4.20;;;13.50;99.90;;;;;;6227489;22;20012;-90
2022/04/25 12:06:54;;;;;;;11.10;4.75;;;13.60;99.90;;;;;;6230878;22;20023;-87
2022/04/25 12:15:40;;;;;;;10.20;4.57;;;13.40;99.90;;;;;;6245848;22;20020;-89
2022/04/25 12:18:26;;;;;;;8.07;4.90;;;13.40;99.90;;;;;;6229098;22;20050;-88
2022/04/25 12:21:13;;;;;;;7.72;4.63;;;13.40;99.90;;;;;;6285426;22;20020;-87
2022/04/25 12:23:45;;;;;;;8.35;4.38;;;13.40;99.90;;;;;;6231844;22;20047;-88
2022/04/25 12:26:23;;;;;;;8.70;4.95;;;13.50;99.90;;;;;;6233775;22;20020;-92
2022/04/25 12:29:06;;;;;;;8.68;4.25;;;13.60;99.90;;;;;;6230148;22;20016;-89
2022/04/25 12:31:49;;;;;;;7.65;3.97;;;13.80;99.90;;;;;;6282676;22;20046;-94
2022/04/25 12:34:19;;;;;;;8.82;4.20;;;14.00;99.90;;;;;;6230216;22;20027;-89
2022/04/25 12:36:56;;;;;;;7.35;4.32;;;14.20;99.90;;;;;;6256907;22;20016;-92
2022/04/25 12:39:22;;;;;;;9.43;4.38;;;14.20;99.90;;;;;;6231627;22;20437;-88
2022/04/25 12:41:56;;;;;;;9.90;4.40;;;14.20;99.90;;;;;;6255944;22;20020;-88
2022/04/25 12:44:23;;;;;;;7.88;4.53;;;14.20;99.90;;;;;;6282429;22;20395;-93
2022/04/25 12:47:04;;;;;;;8.70;4.68;;;14.10;99.90;;;;;;6254923;22;20337;-87
2022/04/25 12:49:34;;;;;;;10.18;4.40;;;14.10;99.90;;;;;;6227385;22;20019;-88
2022/04/25 12:52:03;;;;;;;10.43;4.57;;;14.10;99.90;;;;;;6230926;22;20081;-86
2022/04/25 12:54:41;;;;;;;9.60;5.03;;;14.10;99.90;;;;;;6283130;22;20016;-89
2022/04/25 12:57:12;;;;;;;9.55;4.90;;;14.10;99.90;;;;;;6229863;22;20015;-88
2022/04/25 12:59:39;;;;;;;8.77;4.65;;;14.20;99.90;;;;;;6255184;22;20019;-86
2022/04/25 13:02:10;;;;;;;7.15;4.85;;;14.30;99.90;;;;;;6228166;22;20019;-92
2022/04/25 13:04:51;;;;;;;6.43;4.43;;;14.50;99.90;;;;;;6280375;22;20030;-87
2022/04/25 13:07:38;;;;;;;11.43;4.53;;;14.70;99.90;;;;;;6227637;22;20078;-88
2022/04/25 13:10:07;;;;;;;9.50;4.82;;;14.80;99.60;;;;;;6252177;22;20066;-89
2022/04/25 13:12:39;;;;;;;8.07;4.65;;;14.80;98.90;;;;;;6229696;22;20019;-86
2022/04/25 13:15:10;;;;;;;10.93;5.30;;;14.80;99.30;;;;;;6227286;22;20020;-89
2022/04/25 13:17:36;;;;;;;9.35;5.20;;;14.80;99.30;;;;;;6253731;22;20026;-92
2022/04/25 13:20:06;;;;;;;;;;;14.90;99.00;;;;;;6280475;22;20019;-88
2022/04/25 13:22:33;;;;;;;8.32;5.20;;;14.90;99.10;;;;;;6227895;22;19915;-90
2022/04/25 13:24:59;;;;;;;8.77;5.70;;;14.90;98.50;;;;;;6279002;22;20061;-96
2022/04/25 13:27:31;;;;;;;8.70;5.18;;;14.90;98.30;;;;;;6252904;22;20372;-90
2022/04/25 13:29:57;;;;;;;7.70;5.30;;;14.90;98.20;;;;;;6226367;22;20066;-91
2022/04/25 13:32:23;;;;;;;13.60;5.87;;;15.00;98.60;;;;;;6227134;22;20015;-94
2022/04/25 13:34:48;;;;;;;11.00;5.40;;;15.00;98.70;;;;;;6228759;22;20026;-88